First Clarity — A8RM8 — position and weather

sailwx.info

Track history (hours):
 
Tides and Currents Weather Stations Pressure Air Temp Water Temp Dewpoint Dewpoint Depression Visibility Wind Speed Wind Dir Waves Ship Positions

First Clarity

Last reported at 2014-Oct-23 18:14 UTC. Time now 2014-Oct-31 14:23 UTC.
Position N 34°04' E 130°48'.

Length 104 m; draft 5.7 m.

Type: Cargo ship. MMSI: 636014129.

Date/timePositionNaut miles runAvg speedWind from/ knotsBaromVisibWave heightAir tempDewpointWater temp
2014-Oct-23 18:14N 34°04' E 130°48'  
2014-Oct-21 13:33N 35°05' E 139°41'10 9.6
2014-Oct-21 12:33N 35°13' E 139°46'1010.0
2014-Oct-21 11:33N 35°22' E 139°41'3 3.1
2014-Oct-21 10:31N 35°24' E 139°38'0 0.0
2014-Oct-21 09:31N 35°24' E 139°38'0 0.0
2014-Oct-21 08:31N 35°24' E 139°38'0 0.0
2014-Oct-21 07:31N 35°24' E 139°38'0 0.0
2014-Oct-21 06:31N 35°24' E 139°38'0 0.0
2014-Oct-21 05:31N 35°24' E 139°38'0 0.0
2014-Oct-21 04:28N 35°24' E 139°38'0 0.0
2014-Oct-21 03:31N 35°24' E 139°38'0 0.0
2014-Oct-21 02:31N 35°24' E 139°38'0 0.0
2014-Oct-21 01:31N 35°24' E 139°38'0 0.0
2014-Oct-21 00:31N 35°24' E 139°38'0 0.0
2014-Oct-20 23:31N 35°24' E 139°38'0 0.1
2014-Oct-20 22:33N 35°24' E 139°38'2 1.5
2014-Oct-20 21:31N 35°23' E 139°40'0 0.0
2014-Oct-20 20:31N 35°23' E 139°40'0 0.0
2014-Oct-20 19:31N 35°23' E 139°40'0 0.0
2014-Oct-20 18:31N 35°23' E 139°40'0 0.1
2014-Oct-20 17:31N 35°23' E 139°40'0 0.1
2014-Oct-20 16:31N 35°23' E 139°40'0 0.1
2014-Oct-20 15:31N 35°23' E 139°40'0 0.0
2014-Oct-20 14:31N 35°23' E 139°40'0 0.1
2014-Oct-20 13:31N 35°23' E 139°40'0 0.0
2014-Oct-20 12:31N 35°23' E 139°40'0 0.1
2014-Oct-20 11:31N 35°23' E 139°40'0 0.1
2014-Oct-20 10:31N 35°23' E 139°40'0 0.0
2014-Oct-20 09:31N 35°23' E 139°40'0 0.0
2014-Oct-20 08:31N 35°23' E 139°40'0 0.0
2014-Oct-20 07:31N 35°23' E 139°40'3 2.8
2014-Oct-20 06:33N 35°22' E 139°42'1210.9
2014-Oct-20 05:29N 35°11' E 139°47'  
Track history (hours):
 
Tides and Currents Weather Stations Pressure Air Temp Water Temp Dewpoint Dewpoint Depression Visibility Wind Speed Wind Dir Waves Ship Positions

First Clarity

Last reported at 2014-Oct-23 18:14 UTC. Time now 2014-Oct-31 14:23 UTC.
Position N 34°04' E 130°48'.

Length 104 m; draft 5.7 m.

Type: Cargo ship. MMSI: 636014129.

Date/timePositionNaut miles runAvg speedWind from/ knotsBaromVisibWave heightAir tempDewpointWater temp
2014-Oct-23 18:14N 34°04' E 130°48'  
2014-Oct-21 13:33N 35°05' E 139°41'10 9.6
2014-Oct-21 12:33N 35°13' E 139°46'1010.0
2014-Oct-21 11:33N 35°22' E 139°41'3 3.1
2014-Oct-21 10:31N 35°24' E 139°38'0 0.0
2014-Oct-21 09:31N 35°24' E 139°38'0 0.0
2014-Oct-21 08:31N 35°24' E 139°38'0 0.0
2014-Oct-21 07:31N 35°24' E 139°38'0 0.0
2014-Oct-21 06:31N 35°24' E 139°38'0 0.0
2014-Oct-21 05:31N 35°24' E 139°38'0 0.0
2014-Oct-21 04:28N 35°24' E 139°38'0 0.0
2014-Oct-21 03:31N 35°24' E 139°38'0 0.0
2014-Oct-21 02:31N 35°24' E 139°38'0 0.0
2014-Oct-21 01:31N 35°24' E 139°38'0 0.0
2014-Oct-21 00:31N 35°24' E 139°38'0 0.0
2014-Oct-20 23:31N 35°24' E 139°38'0 0.1
2014-Oct-20 22:33N 35°24' E 139°38'2 1.5
2014-Oct-20 21:31N 35°23' E 139°40'0 0.0
2014-Oct-20 20:31N 35°23' E 139°40'0 0.0
2014-Oct-20 19:31N 35°23' E 139°40'0 0.0
2014-Oct-20 18:31N 35°23' E 139°40'0 0.1
2014-Oct-20 17:31N 35°23' E 139°40'0 0.1
2014-Oct-20 16:31N 35°23' E 139°40'0 0.1
2014-Oct-20 15:31N 35°23' E 139°40'0 0.0
2014-Oct-20 14:31N 35°23' E 139°40'0 0.1
2014-Oct-20 13:31N 35°23' E 139°40'0 0.0
2014-Oct-20 12:31N 35°23' E 139°40'0 0.1
2014-Oct-20 11:31N 35°23' E 139°40'0 0.1
2014-Oct-20 10:31N 35°23' E 139°40'0 0.0
2014-Oct-20 09:31N 35°23' E 139°40'0 0.0
2014-Oct-20 08:31N 35°23' E 139°40'0 0.0
2014-Oct-20 07:31N 35°23' E 139°40'3 2.8
2014-Oct-20 06:33N 35°22' E 139°42'1210.9
2014-Oct-20 05:29N 35°11' E 139°47'  

Dump ship's entire track history